createdAt,value
2023-03-17T00:00:54.957Z,0.00
2023-03-17T00:01:55.188Z,0.00
2023-03-17T00:02:54.926Z,0.00
2023-03-17T00:03:55.044Z,0.00
2023-03-17T00:04:54.900Z,0.00
2023-03-17T00:05:54.904Z,0.00
2023-03-17T00:06:54.873Z,0.00
2023-03-17T00:07:54.858Z,0.00
2023-03-17T00:08:54.889Z,0.00
2023-03-17T00:09:54.832Z,0.00
2023-03-17T00:10:54.815Z,0.00
2023-03-17T00:11:54.828Z,0.00
2023-03-17T00:12:54.787Z,0.00
2023-03-17T00:13:54.786Z,0.00
2023-03-17T00:14:54.764Z,0.00
2023-03-17T00:15:54.888Z,0.00
2023-03-17T00:16:54.749Z,0.00
2023-03-17T00:17:54.716Z,0.00
2023-03-17T00:18:54.711Z,0.00
2023-03-17T00:19:54.907Z,0.00
2023-03-17T00:20:54.698Z,0.00
2023-03-17T00:21:54.694Z,0.00
2023-03-17T00:22:54.658Z,0.00
2023-03-17T00:23:54.655Z,0.00
2023-03-17T00:24:54.629Z,0.00
2023-03-17T00:25:54.637Z,0.00
2023-03-17T00:26:54.807Z,0.00
2023-03-17T00:27:54.605Z,0.00
2023-03-17T00:28:54.615Z,0.00
2023-03-17T00:29:54.617Z,0.00
2023-03-17T00:30:54.756Z,0.00
2023-03-17T00:31:54.553Z,0.00
2023-03-17T00:32:54.667Z,0.00
2023-03-17T00:33:54.531Z,0.00
2023-03-17T00:34:54.505Z,0.00
2023-03-17T00:35:54.621Z,0.00
2023-03-17T00:36:54.502Z,0.00
2023-03-17T00:37:54.487Z,0.00
2023-03-17T00:38:54.497Z,0.00
2023-03-17T00:39:54.457Z,0.00
2023-03-17T00:40:54.430Z,0.00
2023-03-17T00:41:54.416Z,0.00
2023-03-17T00:42:54.417Z,0.00
2023-03-17T00:43:54.429Z,0.00
2023-03-17T00:44:54.378Z,0.00
2023-03-17T00:45:54.357Z,0.00
2023-03-17T00:46:54.419Z,0.00
2023-03-17T00:47:54.327Z,0.00
2023-03-17T00:48:54.319Z,0.00
2023-03-17T00:49:54.298Z,0.00
2023-03-17T00:50:54.310Z,0.00
2023-03-17T00:51:54.295Z,0.00
2023-03-17T00:52:54.252Z,0.00
2023-03-17T00:53:54.273Z,0.00
2023-03-17T00:54:54.236Z,0.00
2023-03-17T00:55:54.220Z,0.00
2023-03-17T00:56:54.195Z,0.00
2023-03-17T00:57:54.238Z,0.00
2023-03-17T00:58:54.183Z,0.00
2023-03-17T00:59:54.162Z,0.00
2023-03-17T01:00:54.149Z,0.00
2023-03-17T01:01:54.185Z,0.00
2023-03-17T01:02:54.342Z,0.00
2023-03-17T01:03:54.190Z,0.00
2023-03-17T01:05:05.417Z,0.00
2023-03-17T01:05:54.319Z,0.00
2023-03-17T01:06:54.172Z,0.00
2023-03-17T01:07:54.053Z,0.00
2023-03-17T01:08:54.044Z,0.00
2023-03-17T01:09:54.072Z,0.00
2023-03-17T01:10:54.008Z,0.00
2023-03-17T01:11:54.007Z,0.00
2023-03-17T01:12:54.024Z,0.00
2023-03-17T01:13:53.989Z,0.00
2023-03-17T01:14:53.968Z,0.00
2023-03-17T01:15:54.027Z,0.00
2023-03-17T01:16:53.953Z,0.00
2023-03-17T01:17:53.947Z,0.00
2023-03-17T01:18:53.949Z,0.00
2023-03-17T01:19:53.926Z,0.00
2023-03-17T01:20:53.886Z,0.00
2023-03-17T01:21:53.884Z,0.00
2023-03-17T01:22:53.865Z,0.00
2023-03-17T01:23:53.858Z,0.00
2023-03-17T01:24:53.831Z,0.00
2023-03-17T01:25:53.878Z,0.00
2023-03-17T01:26:53.809Z,0.00
2023-03-17T01:27:53.804Z,0.00
2023-03-17T01:28:53.774Z,0.00
2023-03-17T01:29:53.767Z,0.00
2023-03-17T01:30:53.745Z,0.00
2023-03-17T01:31:53.833Z,0.00
2023-03-17T01:32:53.860Z,0.00
2023-03-17T01:33:53.715Z,0.00
2023-03-17T01:34:53.702Z,0.00
2023-03-17T01:35:53.761Z,0.00
2023-03-17T01:36:53.678Z,0.00
2023-03-17T01:37:53.873Z,0.00
2023-03-17T01:38:53.664Z,0.00
2023-03-17T01:39:53.654Z,0.00
2023-03-17T01:40:53.618Z,0.00
2023-03-17T01:41:53.630Z,0.00
2023-03-17T01:42:53.594Z,0.00
2023-03-17T01:43:53.586Z,0.00
2023-03-17T01:44:53.567Z,0.00
2023-03-17T01:45:53.578Z,0.00
2023-03-17T01:46:53.736Z,0.00
2023-03-17T01:47:53.551Z,0.00
2023-03-17T01:48:53.743Z,0.00
2023-03-17T01:49:53.710Z,0.00
2023-03-17T01:50:53.498Z,0.00
2023-03-17T01:51:53.493Z,0.00
2023-03-17T01:52:53.465Z,0.00
2023-03-17T01:53:53.472Z,0.00
2023-03-17T01:54:53.435Z,0.00
2023-03-17T01:55:53.428Z,0.00
2023-03-17T01:56:53.407Z,0.00
2023-03-17T01:57:53.502Z,0.00
2023-03-17T01:58:53.381Z,0.00
2023-03-17T01:59:53.386Z,0.00
2023-03-17T02:00:53.584Z,0.00
2023-03-17T02:01:53.341Z,0.00
2023-03-17T02:02:53.333Z,0.00
2023-03-17T02:03:53.354Z,0.00
2023-03-17T02:04:53.306Z,0.00
2023-03-17T02:05:53.293Z,0.00
2023-03-17T02:06:58.407Z,0.00
2023-03-17T02:07:53.278Z,0.00
2023-03-17T02:08:53.264Z,0.00
2023-03-17T02:09:53.272Z,0.00
2023-03-17T02:10:53.229Z,0.00
2023-03-17T02:11:53.210Z,0.00
2023-03-17T02:12:53.353Z,0.00
2023-03-17T02:13:53.242Z,0.00
2023-03-17T02:14:53.216Z,0.00
2023-03-17T02:15:53.180Z,0.00
2023-03-17T02:16:53.247Z,0.00
2023-03-17T02:17:53.344Z,0.00
2023-03-17T02:18:53.153Z,0.00
2023-03-17T02:19:53.124Z,0.00
2023-03-17T02:20:53.090Z,0.00
2023-03-17T02:21:53.083Z,0.00
2023-03-17T02:22:53.122Z,0.00
2023-03-17T02:23:53.064Z,0.00
2023-03-17T02:24:53.081Z,0.00
2023-03-17T02:25:53.071Z,0.00
2023-03-17T02:26:53.030Z,0.00
2023-03-17T02:27:53.004Z,0.00
2023-03-17T02:28:52.989Z,0.00
2023-03-17T02:29:53.002Z,0.00
2023-03-17T02:30:53.016Z,0.00
2023-03-17T02:31:52.959Z,0.00
2023-03-17T02:32:53.005Z,0.00
2023-03-17T02:33:52.928Z,0.00
2023-03-17T02:34:52.920Z,0.00
2023-03-17T02:35:52.992Z,0.00
2023-03-17T02:36:52.953Z,0.00
2023-03-17T02:37:52.874Z,0.00
2023-03-17T02:38:52.910Z,0.00
2023-03-17T02:39:52.860Z,0.00
2023-03-17T02:40:52.835Z,0.00
2023-03-17T02:41:52.818Z,0.00
2023-03-17T02:42:52.810Z,0.00
2023-03-17T02:43:52.797Z,0.00
2023-03-17T02:44:52.783Z,0.00
2023-03-17T02:45:52.822Z,0.00
2023-03-17T02:46:52.754Z,0.00
2023-03-17T02:47:52.749Z,0.00
2023-03-17T02:48:52.735Z,0.00
2023-03-17T02:49:52.740Z,0.00
2023-03-17T02:50:52.721Z,0.00
2023-03-17T02:51:52.696Z,0.00
2023-03-17T02:52:52.693Z,0.00
2023-03-17T02:53:52.672Z,0.00
2023-03-17T02:54:52.657Z,0.00
2023-03-17T02:55:52.642Z,0.00
2023-03-17T02:56:52.634Z,0.00
2023-03-17T02:57:52.612Z,0.00
2023-03-17T02:58:52.598Z,0.00
2023-03-17T02:59:52.591Z,0.00
2023-03-17T03:00:52.573Z,0.00
2023-03-17T03:01:52.586Z,0.00
2023-03-17T03:02:52.629Z,0.00
2023-03-17T03:03:52.737Z,0.00
2023-03-17T03:04:52.549Z,0.00
2023-03-17T03:05:52.539Z,0.00
2023-03-17T03:06:52.520Z,0.00
2023-03-17T03:07:52.508Z,0.00
2023-03-17T03:08:52.519Z,0.00
2023-03-17T03:09:52.462Z,0.00
2023-03-17T03:10:52.455Z,0.00
2023-03-17T03:11:52.438Z,0.00
2023-03-17T03:12:52.429Z,0.00
2023-03-17T03:13:52.406Z,0.00
2023-03-17T03:14:52.815Z,0.00
2023-03-17T03:15:52.466Z,0.00
2023-03-17T03:16:52.377Z,0.00
2023-03-17T03:17:52.375Z,0.00
2023-03-17T03:18:52.345Z,0.00
2023-03-17T03:19:52.331Z,0.00
2023-03-17T03:20:52.315Z,0.00
2023-03-17T03:21:52.302Z,0.00
2023-03-17T03:22:52.304Z,0.00
2023-03-17T03:23:52.287Z,0.00
2023-03-17T03:24:52.266Z,0.00
2023-03-17T03:25:52.252Z,0.00
2023-03-17T03:26:52.262Z,0.00
2023-03-17T03:27:52.243Z,0.00
2023-03-17T03:28:52.265Z,0.00
2023-03-17T03:29:52.204Z,0.00
2023-03-17T03:30:52.262Z,0.00
2023-03-17T03:31:52.186Z,0.00
2023-03-17T03:32:52.213Z,0.00
2023-03-17T03:33:52.217Z,0.00
2023-03-17T03:34:52.196Z,0.00
2023-03-17T03:35:52.178Z,0.00
2023-03-17T03:36:52.109Z,0.00
2023-03-17T03:37:52.098Z,0.00
2023-03-17T03:38:52.092Z,0.00
2023-03-17T03:39:52.116Z,0.00
2023-03-17T03:40:52.070Z,0.00
2023-03-17T03:41:52.062Z,0.00
2023-03-17T03:42:52.032Z,0.00
2023-03-17T03:43:52.040Z,0.00
2023-03-17T03:44:52.000Z,0.00
2023-03-17T03:45:52.210Z,0.00
2023-03-17T03:46:52.294Z,0.00
2023-03-17T03:47:51.970Z,0.00
2023-03-17T03:48:51.939Z,0.00
2023-03-17T03:49:51.960Z,0.00
2023-03-17T03:50:51.917Z,0.00
2023-03-17T03:51:51.930Z,0.00
2023-03-17T03:52:51.890Z,0.00
2023-03-17T03:53:51.881Z,0.00
2023-03-17T03:54:51.894Z,0.00
2023-03-17T03:55:51.867Z,0.00
2023-03-17T03:56:51.850Z,0.00
2023-03-17T03:57:51.864Z,0.00
2023-03-17T03:58:51.844Z,0.00
2023-03-17T03:59:51.806Z,0.00
2023-03-17T04:00:51.787Z,0.00
2023-03-17T04:01:51.829Z,0.00
2023-03-17T04:02:51.805Z,0.00
2023-03-17T04:03:51.757Z,0.00
2023-03-17T04:04:51.796Z,0.00
2023-03-17T04:05:51.744Z,0.00
2023-03-17T04:06:51.720Z,0.00
2023-03-17T04:07:51.702Z,0.00
2023-03-17T04:08:51.687Z,0.00
2023-03-17T04:09:51.688Z,0.00
2023-03-17T04:10:51.653Z,0.00
2023-03-17T04:11:51.646Z,0.00
2023-03-17T04:12:51.626Z,0.00
2023-03-17T04:13:51.625Z,0.00
2023-03-17T04:14:51.598Z,0.00
2023-03-17T04:15:51.622Z,0.00
2023-03-17T04:16:51.589Z,0.00
2023-03-17T04:17:51.768Z,0.00
2023-03-17T04:18:51.624Z,0.00
2023-03-17T04:19:51.539Z,0.00
2023-03-17T04:20:51.557Z,0.00
2023-03-17T04:21:53.624Z,0.00
2023-03-17T04:22:51.496Z,0.00
2023-03-17T04:23:51.489Z,0.00
2023-03-17T04:24:51.472Z,0.00
2023-03-17T04:25:51.470Z,0.00
2023-03-17T04:26:51.444Z,0.00
2023-03-17T04:27:51.432Z,0.00
2023-03-17T04:28:51.449Z,0.00
2023-03-17T04:29:51.408Z,0.00
2023-03-17T04:30:51.407Z,0.00
2023-03-17T04:31:51.475Z,0.00
2023-03-17T04:32:51.436Z,0.00
2023-03-17T04:33:51.377Z,0.00
2023-03-17T04:34:51.362Z,0.00
2023-03-17T04:35:51.422Z,0.00
2023-03-17T04:36:51.307Z,0.00
2023-03-17T04:37:51.323Z,0.00
2023-03-17T04:38:51.287Z,0.00
2023-03-17T04:39:51.284Z,0.00
2023-03-17T04:40:51.259Z,0.00
2023-03-17T04:41:51.250Z,0.00
2023-03-17T04:42:51.430Z,0.00
2023-03-17T04:43:51.231Z,0.00
2023-03-17T04:44:51.219Z,0.00
2023-03-17T04:45:51.257Z,0.00
2023-03-17T04:46:51.191Z,0.00
2023-03-17T04:47:51.183Z,0.00
2023-03-17T04:48:51.168Z,0.00
2023-03-17T04:49:51.154Z,0.00
2023-03-17T04:50:51.137Z,0.00
2023-03-17T04:51:51.119Z,0.00
2023-03-17T04:52:51.100Z,0.00
2023-03-17T04:53:51.127Z,0.00
2023-03-17T04:54:51.092Z,0.00
2023-03-17T04:55:51.071Z,4.00
2023-03-17T04:56:51.051Z,4.00
2023-03-17T04:57:51.035Z,0.00
2023-03-17T04:58:51.021Z,4.00
2023-03-17T04:59:51.012Z,0.00
2023-03-17T05:00:51.225Z,4.00
2023-03-17T05:01:51.024Z,4.00
2023-03-17T05:02:50.982Z,4.00
2023-03-17T05:03:50.959Z,4.00
2023-03-17T05:04:50.957Z,8.00
2023-03-17T05:05:50.938Z,8.00
2023-03-17T05:06:50.922Z,8.00
2023-03-17T05:07:50.909Z,12.00
2023-03-17T05:08:50.888Z,12.00
2023-03-17T05:09:50.899Z,16.00
2023-03-17T05:10:51.074Z,20.00
2023-03-17T05:11:50.858Z,24.00
2023-03-17T05:12:50.840Z,28.00
2023-03-17T05:13:50.837Z,32.00
2023-03-17T05:14:50.860Z,36.00
2023-03-17T05:15:50.804Z,44.00
2023-03-17T05:16:50.874Z,44.00
2023-03-17T05:17:50.789Z,52.00
2023-03-17T05:18:50.775Z,56.00
2023-03-17T05:19:50.812Z,64.00
2023-03-17T05:20:50.746Z,72.00
2023-03-17T05:21:50.720Z,80.00
2023-03-17T05:22:50.705Z,88.00
2023-03-17T05:23:51.309Z,96.00
2023-03-17T05:24:50.726Z,108.00
2023-03-17T05:25:50.748Z,124.00
2023-03-17T05:26:50.870Z,140.00
2023-03-17T05:27:50.648Z,152.00
2023-03-17T05:28:50.636Z,172.00
2023-03-17T05:29:50.814Z,196.00
2023-03-17T05:30:50.677Z,216.00
2023-03-17T05:31:50.591Z,240.00
2023-03-17T05:32:50.629Z,264.00
2023-03-17T05:33:50.564Z,296.00
2023-03-17T05:34:50.544Z,328.00
2023-03-17T05:35:50.550Z,364.00
2023-03-17T05:36:50.580Z,404.00
2023-03-17T05:37:50.527Z,448.00
2023-03-17T05:38:50.494Z,496.00
2023-03-17T05:39:50.476Z,552.00
2023-03-17T05:40:50.476Z,608.00
2023-03-17T05:41:50.477Z,680.00
2023-03-17T05:42:50.453Z,784.00
2023-03-17T05:43:50.441Z,896.00
2023-03-17T05:44:50.416Z,1072.00
2023-03-17T05:45:50.428Z,1296.00
2023-03-17T05:46:50.393Z,1300.00
2023-03-17T05:47:50.378Z,1156.00
2023-03-17T05:48:50.370Z,1100.00
2023-03-17T05:49:50.359Z,1104.00
2023-03-17T05:50:50.349Z,1136.00
2023-03-17T05:51:50.325Z,1192.00
2023-03-17T05:52:50.306Z,1268.00
2023-03-17T05:53:50.293Z,1372.00
2023-03-17T05:54:50.281Z,1528.00
2023-03-17T05:55:50.269Z,1744.00
2023-03-17T05:56:50.266Z,2088.00
2023-03-17T05:57:50.283Z,2700.00
2023-03-17T05:58:50.240Z,3472.00
2023-03-17T05:59:50.220Z,3728.00
2023-03-17T06:00:50.209Z,3556.00
2023-03-17T06:01:50.230Z,4408.00
2023-03-17T06:02:50.197Z,4968.00
2023-03-17T06:03:50.263Z,3868.00
2023-03-17T06:04:50.383Z,2760.00
2023-03-17T06:05:50.156Z,2380.00
2023-03-17T06:06:50.126Z,2272.00
2023-03-17T06:07:54.878Z,2216.00
2023-03-17T06:08:50.144Z,2496.00
2023-03-17T06:09:50.108Z,2716.00
2023-03-17T06:10:50.118Z,2676.00
2023-03-17T06:11:50.092Z,2716.00
2023-03-17T06:12:50.093Z,2816.00
2023-03-17T06:13:50.062Z,2908.00
2023-03-17T06:14:50.038Z,2960.00
2023-03-17T06:15:50.340Z,3048.00
2023-03-17T06:16:50.034Z,3172.00
2023-03-17T06:17:50.004Z,3228.00
2023-03-17T06:18:49.987Z,3392.00
2023-03-17T06:19:49.967Z,3672.00
2023-03-17T06:20:49.979Z,3944.00
2023-03-17T06:21:49.954Z,4084.00
2023-03-17T06:23:03.305Z,4084.00
2023-03-17T06:23:50.139Z,4116.00
2023-03-17T06:24:49.960Z,4276.00
2023-03-17T06:25:49.890Z,4496.00
2023-03-17T06:26:49.893Z,4536.00
2023-03-17T06:27:49.863Z,4420.00
2023-03-17T06:28:49.850Z,4468.00
2023-03-17T06:29:49.877Z,4588.00
2023-03-17T06:30:49.928Z,4520.00
2023-03-17T06:31:49.807Z,4152.00
2023-03-17T06:32:49.859Z,3888.00
2023-03-17T06:33:49.787Z,3828.00
2023-03-17T06:34:49.795Z,3888.00
2023-03-17T06:35:49.847Z,4012.00
2023-03-17T06:36:49.746Z,4168.00
2023-03-17T06:37:49.740Z,4324.00
2023-03-17T06:38:49.759Z,4396.00
2023-03-17T06:39:49.710Z,4396.00
2023-03-17T06:40:49.722Z,4344.00
2023-03-17T06:41:50.199Z,4268.00
2023-03-17T06:42:49.711Z,4152.00
2023-03-17T06:43:49.677Z,4084.00
2023-03-17T06:44:49.711Z,4104.00
2023-03-17T06:45:49.697Z,4296.00
2023-03-17T06:46:49.734Z,4736.00
2023-03-17T06:47:49.662Z,5364.00
2023-03-17T06:48:49.648Z,5752.00
2023-03-17T06:49:49.601Z,6976.00
2023-03-17T06:50:49.581Z,7340.00
2023-03-17T06:51:49.577Z,7388.00
2023-03-17T06:52:49.561Z,11288.00
2023-03-17T06:53:49.561Z,21792.00
2023-03-17T06:54:49.560Z,29248.00
2023-03-17T06:55:49.761Z,50400.00
2023-03-17T06:56:49.540Z,69792.00
2023-03-17T06:57:51.222Z,58944.00
2023-03-17T06:58:49.505Z,72672.00
2023-03-17T06:59:49.479Z,72672.00
2023-03-17T07:00:49.462Z,71392.00
2023-03-17T07:01:49.795Z,65344.00
2023-03-17T07:02:49.485Z,58368.00
2023-03-17T07:03:49.447Z,54592.00
2023-03-17T07:04:49.539Z,57024.00
2023-03-17T07:05:49.429Z,46880.00
2023-03-17T07:06:49.442Z,47296.00
2023-03-17T07:07:49.469Z,40256.00
2023-03-17T07:08:49.409Z,40640.00
2023-03-17T07:09:49.433Z,63648.00
2023-03-17T07:10:49.409Z,64224.00
2023-03-17T07:11:49.375Z,54656.00
2023-03-17T07:12:49.433Z,52096.00
2023-03-17T07:13:49.353Z,61088.00
2023-03-17T07:14:49.370Z,64832.00
2023-03-17T07:15:49.429Z,63456.00
2023-03-17T07:16:49.470Z,63328.00
2023-03-17T07:17:49.405Z,64256.00
2023-03-17T07:18:49.331Z,64064.00
2023-03-17T07:19:49.381Z,71424.00
2023-03-17T07:20:49.345Z,74400.00
2023-03-17T07:21:49.335Z,68768.00
2023-03-17T07:22:49.368Z,67968.00
2023-03-17T07:23:49.307Z,71936.00
2023-03-17T07:24:49.458Z,70848.00
2023-03-17T07:25:49.330Z,73696.00
2023-03-17T07:26:49.288Z,73536.00
2023-03-17T07:27:49.275Z,68352.00
2023-03-17T07:28:49.272Z,63680.00
2023-03-17T07:29:49.325Z,70656.00
2023-03-17T07:30:49.288Z,72608.00
2023-03-17T07:31:49.364Z,73984.00
2023-03-17T07:32:49.423Z,73088.00
2023-03-17T07:33:49.464Z,73536.00
2023-03-17T07:34:49.250Z,67104.00
2023-03-17T07:35:49.272Z,73376.00
2023-03-17T07:36:49.234Z,75168.00
2023-03-17T07:37:49.228Z,72672.00
2023-03-17T07:38:49.243Z,84320.00
2023-03-17T07:39:49.223Z,81312.00
2023-03-17T07:40:49.203Z,75680.00
2023-03-17T07:41:49.211Z,81792.00
2023-03-17T07:42:49.213Z,83616.00
2023-03-17T07:43:49.388Z,83520.00
2023-03-17T07:44:49.177Z,94880.00
2023-03-17T07:45:49.236Z,89888.00
2023-03-17T07:46:49.223Z,88416.00
2023-03-17T07:47:49.179Z,84672.00
2023-03-17T07:48:49.195Z,68832.00
2023-03-17T07:49:49.223Z,47072.00
2023-03-17T07:50:49.209Z,29088.00
2023-03-17T07:51:49.148Z,14912.00
2023-03-17T07:52:49.176Z,13876.00
2023-03-17T07:53:49.186Z,16672.00
2023-03-17T07:54:49.133Z,22272.00
2023-03-17T07:55:49.149Z,61792.00
2023-03-17T07:56:49.341Z,66304.00
2023-03-17T07:57:49.204Z,75296.00
2023-03-17T07:58:49.146Z,76576.00
2023-03-17T07:59:49.164Z,73120.00
2023-03-17T08:00:49.123Z,64864.00
2023-03-17T08:01:49.385Z,66176.00
2023-03-17T08:03:03.150Z,65408.00
2023-03-17T08:03:49.533Z,64864.00
2023-03-17T08:04:49.124Z,62368.00
2023-03-17T08:05:49.361Z,64160.00
2023-03-17T08:06:49.096Z,56000.00
2023-03-17T08:07:49.075Z,60864.00
2023-03-17T08:08:49.094Z,60704.00
2023-03-17T08:09:49.088Z,60032.00
2023-03-17T08:10:49.073Z,62880.00
2023-03-17T08:11:49.063Z,53408.00
2023-03-17T08:12:49.052Z,61120.00
2023-03-17T08:13:49.065Z,32672.00
2023-03-17T08:14:49.086Z,24448.00
2023-03-17T08:15:49.041Z,24992.00
2023-03-17T08:16:49.115Z,37920.00
2023-03-17T08:17:49.050Z,25696.00
2023-03-17T08:18:49.019Z,38432.00
2023-03-17T08:19:49.043Z,43040.00
2023-03-17T08:20:49.006Z,48416.00
2023-03-17T08:21:49.039Z,47904.00
2023-03-17T08:22:49.036Z,40064.00
2023-03-17T08:23:48.994Z,43840.00
2023-03-17T08:24:49.023Z,43968.00
2023-03-17T08:25:48.962Z,36832.00
2023-03-17T08:26:49.049Z,29376.00
2023-03-17T08:27:49.047Z,30624.00
2023-03-17T08:28:49.175Z,28608.00
2023-03-17T08:29:49.041Z,28896.00
2023-03-17T08:30:50.566Z,34048.00
2023-03-17T08:31:49.037Z,40704.00
2023-03-17T08:32:49.051Z,39360.00
2023-03-17T08:33:48.925Z,43776.00
2023-03-17T08:34:48.928Z,46880.00
2023-03-17T08:35:48.923Z,55488.00
2023-03-17T08:36:48.957Z,58016.00
2023-03-17T08:37:48.947Z,49696.00
2023-03-17T08:38:48.890Z,39360.00
2023-03-17T08:39:48.890Z,38496.00
2023-03-17T08:40:48.875Z,50048.00
2023-03-17T08:41:48.865Z,72000.00
2023-03-17T08:42:48.848Z,75104.00
2023-03-17T08:43:48.883Z,88928.00
2023-03-17T08:44:48.887Z,78816.00
2023-03-17T08:45:48.913Z,66464.00
2023-03-17T08:46:48.899Z,70336.00
2023-03-17T08:47:48.865Z,67872.00
2023-03-17T08:48:48.816Z,75552.00
2023-03-17T08:49:48.841Z,76128.00
2023-03-17T08:50:48.810Z,78688.00
2023-03-17T08:51:48.803Z,76448.00
2023-03-17T08:52:48.855Z,74976.00
2023-03-17T08:53:48.863Z,76160.00
2023-03-17T08:54:48.852Z,78016.00
2023-03-17T08:55:48.796Z,71840.00
2023-03-17T08:56:48.783Z,77824.00
2023-03-17T08:57:48.773Z,76960.00
2023-03-17T08:58:48.782Z,77472.00
2023-03-17T08:59:48.772Z,75520.00
2023-03-17T09:00:48.757Z,75808.00
2023-03-17T09:01:48.858Z,79200.00
2023-03-17T09:02:48.831Z,74944.00
2023-03-17T09:03:48.765Z,79712.00
2023-03-17T09:04:48.733Z,76800.00
2023-03-17T09:05:48.759Z,67840.00
2023-03-17T09:07:02.308Z,29536.00
2023-03-17T09:07:48.742Z,9304.00
2023-03-17T09:08:48.708Z,8876.00
2023-03-17T09:09:48.754Z,10356.00
2023-03-17T09:10:48.721Z,32704.00
2023-03-17T09:11:48.718Z,54624.00
2023-03-17T09:12:48.692Z,64896.00
2023-03-17T09:13:48.674Z,64832.00
2023-03-17T09:14:49.386Z,64512.00
2023-03-17T09:15:50.120Z,65696.00
2023-03-17T09:16:48.677Z,65472.00
2023-03-17T09:17:48.666Z,60448.00
2023-03-17T09:18:48.669Z,33664.00
2023-03-17T09:19:48.659Z,9960.00
2023-03-17T09:20:48.653Z,8564.00
2023-03-17T09:21:48.645Z,8196.00
2023-03-17T09:22:48.635Z,7860.00
2023-03-17T09:23:48.858Z,7840.00
2023-03-17T09:24:48.626Z,7636.00
2023-03-17T09:25:48.636Z,7896.00
2023-03-17T09:26:48.636Z,7652.00
2023-03-17T09:27:48.619Z,7716.00
2023-03-17T09:28:48.630Z,7748.00
2023-03-17T09:29:48.677Z,7712.00
2023-03-17T09:30:48.639Z,7996.00
2023-03-17T09:31:48.611Z,7652.00
2023-03-17T09:32:48.710Z,7684.00
2023-03-17T09:33:48.598Z,7900.00
2023-03-17T09:34:51.024Z,8048.00
2023-03-17T09:35:48.669Z,7908.00
2023-03-17T09:36:48.553Z,7840.00
2023-03-17T09:37:48.599Z,7712.00
2023-03-17T09:38:48.543Z,7392.00
2023-03-17T09:39:48.584Z,7500.00
2023-03-17T09:40:48.549Z,7212.00
2023-03-17T09:41:48.538Z,7508.00
2023-03-17T09:42:48.544Z,7672.00
2023-03-17T09:43:48.530Z,7740.00
2023-03-17T09:44:48.550Z,7680.00
2023-03-17T09:45:48.546Z,7716.00
2023-03-17T09:46:48.608Z,7488.00
2023-03-17T09:47:48.567Z,7696.00
2023-03-17T09:48:48.503Z,7272.00
2023-03-17T09:49:48.524Z,7364.00
2023-03-17T09:50:48.476Z,7144.00
2023-03-17T09:51:48.490Z,7252.00
2023-03-17T09:52:51.317Z,7256.00
2023-03-17T09:53:48.503Z,7072.00
2023-03-17T09:54:48.675Z,6608.00
2023-03-17T09:55:48.440Z,7088.00
2023-03-17T09:56:48.438Z,6804.00
2023-03-17T09:57:48.673Z,7052.00
2023-03-17T09:58:51.055Z,7064.00
2023-03-17T09:59:48.434Z,7108.00
2023-03-17T10:00:48.423Z,6936.00
2023-03-17T10:01:48.424Z,7232.00
2023-03-17T10:02:48.601Z,7316.00
2023-03-17T10:03:48.409Z,7720.00
2023-03-17T10:04:48.444Z,7364.00
2023-03-17T10:05:48.472Z,7748.00
2023-03-17T10:06:48.371Z,7712.00
2023-03-17T10:07:48.348Z,7716.00
2023-03-17T10:08:48.355Z,7628.00
2023-03-17T10:09:48.589Z,7624.00
2023-03-17T10:10:48.346Z,7828.00
2023-03-17T10:11:48.330Z,7920.00
2023-03-17T10:12:48.327Z,8140.00
2023-03-17T10:13:48.356Z,8088.00
2023-03-17T10:14:51.064Z,8084.00
2023-03-17T10:15:48.376Z,7868.00
2023-03-17T10:16:48.304Z,7868.00
2023-03-17T10:17:48.281Z,7972.00
2023-03-17T10:18:48.278Z,7900.00
2023-03-17T10:19:48.270Z,7972.00
2023-03-17T10:20:50.468Z,7768.00
2023-03-17T10:21:48.286Z,7968.00
2023-03-17T10:22:48.237Z,7768.00
2023-03-17T10:23:48.239Z,7748.00
2023-03-17T10:24:48.238Z,7468.00
2023-03-17T10:25:48.220Z,7360.00
2023-03-17T10:26:48.232Z,7200.00
2023-03-17T10:27:48.209Z,7316.00
2023-03-17T10:28:48.225Z,7436.00
2023-03-17T10:29:48.712Z,7336.00
2023-03-17T10:30:48.186Z,7300.00
2023-03-17T10:31:48.212Z,7104.00
2023-03-17T10:32:48.294Z,6888.00
2023-03-17T10:33:48.168Z,6924.00
2023-03-17T10:34:48.171Z,6856.00
2023-03-17T10:35:48.266Z,6832.00
2023-03-17T10:36:48.136Z,6704.00
2023-03-17T10:37:48.142Z,6596.00
2023-03-17T10:38:48.144Z,6356.00
2023-03-17T10:39:48.136Z,6572.00
2023-03-17T10:40:48.148Z,6472.00
2023-03-17T10:41:48.108Z,6640.00
2023-03-17T10:42:48.116Z,6784.00
2023-03-17T10:43:48.298Z,6648.00
2023-03-17T10:44:48.087Z,6440.00
2023-03-17T10:45:48.101Z,6636.00
2023-03-17T10:46:48.090Z,6736.00
2023-03-17T10:47:48.083Z,6896.00
2023-03-17T10:48:48.054Z,6992.00
2023-03-17T10:49:48.078Z,6864.00
2023-03-17T10:50:49.595Z,6672.00
2023-03-17T10:51:48.064Z,6576.00
2023-03-17T10:52:48.046Z,6668.00
2023-03-17T10:53:48.044Z,6696.00
2023-03-17T10:54:48.006Z,6640.00
2023-03-17T10:55:48.026Z,6168.00
2023-03-17T10:56:47.995Z,6176.00
2023-03-17T10:57:48.008Z,6252.00
2023-03-17T10:58:47.996Z,6068.00
2023-03-17T10:59:47.984Z,5996.00
2023-03-17T11:00:48.030Z,5892.00
2023-03-17T11:01:48.184Z,5940.00
2023-03-17T11:02:47.990Z,6076.00
2023-03-17T11:03:47.999Z,6032.00
2023-03-17T11:04:47.963Z,6172.00
2023-03-17T11:05:47.952Z,5784.00
2023-03-17T11:06:47.942Z,5692.00
2023-03-17T11:07:47.947Z,5524.00
2023-03-17T11:08:47.945Z,5796.00
2023-03-17T11:09:47.913Z,5972.00
2023-03-17T11:10:47.925Z,6012.00
2023-03-17T11:11:47.902Z,5908.00
2023-03-17T11:12:48.074Z,5636.00
2023-03-17T11:13:47.886Z,5748.00
2023-03-17T11:14:47.871Z,5672.00
2023-03-17T11:15:47.865Z,5580.00
2023-03-17T11:16:47.921Z,5596.00
2023-03-17T11:17:47.871Z,5644.00
2023-03-17T11:18:47.838Z,5716.00
2023-03-17T11:19:48.041Z,5600.00
2023-03-17T11:20:47.865Z,5488.00
2023-03-17T11:21:47.852Z,5524.00
2023-03-17T11:22:47.817Z,5396.00
2023-03-17T11:23:48.064Z,5288.00
2023-03-17T11:24:47.804Z,5244.00
2023-03-17T11:25:47.796Z,5232.00
2023-03-17T11:26:47.803Z,5116.00
2023-03-17T11:27:47.833Z,5200.00
2023-03-17T11:28:47.782Z,5124.00
2023-03-17T11:29:47.791Z,5204.00
2023-03-17T11:30:47.805Z,5208.00
2023-03-17T11:31:47.890Z,5288.00
2023-03-17T11:32:47.878Z,5316.00
2023-03-17T11:33:47.781Z,5288.00
2023-03-17T11:34:47.749Z,5268.00
2023-03-17T11:35:47.780Z,5308.00
2023-03-17T11:36:47.747Z,5304.00
2023-03-17T11:37:47.748Z,5256.00
2023-03-17T11:38:47.711Z,5300.00
2023-03-17T11:39:47.751Z,5268.00
2023-03-17T11:40:47.703Z,5280.00
2023-03-17T11:41:47.704Z,5244.00
2023-03-17T11:42:47.676Z,5192.00
2023-03-17T11:43:47.685Z,5160.00
2023-03-17T11:44:47.678Z,5216.00
2023-03-17T11:45:47.777Z,5220.00
2023-03-17T11:46:47.657Z,5216.00
2023-03-17T11:47:47.659Z,5200.00
2023-03-17T11:48:47.658Z,5232.00
2023-03-17T11:49:47.661Z,5224.00
2023-03-17T11:50:47.628Z,5208.00
2023-03-17T11:51:47.631Z,5228.00
2023-03-17T11:52:47.619Z,5212.00
2023-03-17T11:53:47.660Z,5172.00
2023-03-17T11:54:47.606Z,5152.00
2023-03-17T11:55:47.629Z,5136.00
2023-03-17T11:56:47.626Z,5136.00
2023-03-17T11:57:47.596Z,5148.00
2023-03-17T11:58:47.572Z,5128.00
2023-03-17T11:59:47.571Z,5136.00
2023-03-17T12:00:47.958Z,5108.00
2023-03-17T12:01:47.558Z,5144.00
2023-03-17T12:02:47.544Z,5180.00
2023-03-17T12:03:47.663Z,5180.00
2023-03-17T12:04:47.545Z,5120.00
2023-03-17T12:05:47.583Z,5120.00
2023-03-17T12:06:47.515Z,5132.00
2023-03-17T12:07:47.506Z,5128.00
2023-03-17T12:08:47.520Z,5164.00
2023-03-17T12:09:47.493Z,5192.00
2023-03-17T12:10:47.493Z,5264.00
2023-03-17T12:11:47.493Z,5380.00
2023-03-17T12:12:47.492Z,5496.00
2023-03-17T12:13:47.476Z,5420.00
2023-03-17T12:14:47.479Z,5376.00
2023-03-17T12:15:47.555Z,5364.00
2023-03-17T12:16:47.510Z,5376.00
2023-03-17T12:17:47.457Z,5528.00
2023-03-17T12:18:47.488Z,5412.00
2023-03-17T12:19:47.437Z,5412.00
2023-03-17T12:20:47.417Z,5424.00
2023-03-17T12:21:47.453Z,5440.00
2023-03-17T12:22:47.839Z,5440.00
2023-03-17T12:23:47.409Z,5416.00
2023-03-17T12:24:47.429Z,5416.00
2023-03-17T12:25:47.411Z,5440.00
2023-03-17T12:26:47.633Z,5380.00
2023-03-17T12:27:47.390Z,5272.00
2023-03-17T12:28:47.363Z,5220.00
2023-03-17T12:29:47.417Z,5228.00
2023-03-17T12:30:47.421Z,5176.00